sensor_id;sensor_type;location;lat;lon;timestamp;P1;durP1;ratioP1;P2;durP2;ratioP2
54177;SDS011;40085;53.004;6.770;2022-08-19T00:02:04;5.55;;;3.30;;
54177;SDS011;40085;53.004;6.770;2022-08-19T00:04:31;5.35;;;3.40;;
54177;SDS011;40085;53.004;6.770;2022-08-19T00:07:01;7.13;;;3.35;;
54177;SDS011;40085;53.004;6.770;2022-08-19T00:09:29;7.22;;;3.58;;
54177;SDS011;40085;53.004;6.770;2022-08-19T00:11:55;6.70;;;3.67;;
54177;SDS011;40085;53.004;6.770;2022-08-19T00:14:23;6.05;;;3.83;;
54177;SDS011;40085;53.004;6.770;2022-08-19T00:16:51;6.60;;;3.30;;
54177;SDS011;40085;53.004;6.770;2022-08-19T00:19:19;5.00;;;3.22;;
54177;SDS011;40085;53.004;6.770;2022-08-19T00:21:46;4.75;;;2.97;;
54177;SDS011;40085;53.004;6.770;2022-08-19T00:24:12;6.25;;;3.50;;
54177;SDS011;40085;53.004;6.770;2022-08-19T00:26:40;4.90;;;3.10;;
54177;SDS011;40085;53.004;6.770;2022-08-19T00:29:07;4.55;;;2.83;;
54177;SDS011;40085;53.004;6.770;2022-08-19T00:31:34;5.88;;;3.50;;
54177;SDS011;40085;53.004;6.770;2022-08-19T00:34:00;5.25;;;3.25;;
54177;SDS011;40085;53.004;6.770;2022-08-19T00:36:27;4.53;;;2.72;;
54177;SDS011;40085;53.004;6.770;2022-08-19T00:38:54;5.20;;;2.80;;
54177;SDS011;40085;53.004;6.770;2022-08-19T00:41:20;3.38;;;2.60;;
54177;SDS011;40085;53.004;6.770;2022-08-19T00:46:31;5.57;;;3.17;;
54177;SDS011;40085;53.004;6.770;2022-08-19T00:48:59;5.25;;;3.05;;
54177;SDS011;40085;53.004;6.770;2022-08-19T00:51:27;5.05;;;3.28;;
54177;SDS011;40085;53.004;6.770;2022-08-19T00:53:55;6.32;;;3.17;;
54177;SDS011;40085;53.004;6.770;2022-08-19T00:56:23;7.10;;;3.83;;
54177;SDS011;40085;53.004;6.770;2022-08-19T00:58:52;3.70;;;2.88;;
54177;SDS011;40085;53.004;6.770;2022-08-19T01:01:20;6.18;;;3.22;;
54177;SDS011;40085;53.004;6.770;2022-08-19T01:03:46;6.18;;;3.88;;
54177;SDS011;40085;53.004;6.770;2022-08-19T01:06:12;5.53;;;3.30;;
54177;SDS011;40085;53.004;6.770;2022-08-19T01:08:38;5.85;;;3.47;;
54177;SDS011;40085;53.004;6.770;2022-08-19T01:11:03;5.90;;;3.22;;
54177;SDS011;40085;53.004;6.770;2022-08-19T01:13:30;5.70;;;3.72;;
54177;SDS011;40085;53.004;6.770;2022-08-19T01:16:02;5.38;;;3.40;;
54177;SDS011;40085;53.004;6.770;2022-08-19T01:18:30;5.35;;;3.50;;
54177;SDS011;40085;53.004;6.770;2022-08-19T01:21:06;6.05;;;2.92;;
54177;SDS011;40085;53.004;6.770;2022-08-19T01:23:43;5.40;;;3.40;;
54177;SDS011;40085;53.004;6.770;2022-08-19T01:26:11;4.35;;;3.30;;
54177;SDS011;40085;53.004;6.770;2022-08-19T01:28:39;5.78;;;3.03;;
54177;SDS011;40085;53.004;6.770;2022-08-19T01:31:07;5.45;;;3.70;;
54177;SDS011;40085;53.004;6.770;2022-08-19T01:33:36;5.15;;;3.10;;
54177;SDS011;40085;53.004;6.770;2022-08-19T01:36:03;6.25;;;3.63;;
54177;SDS011;40085;53.004;6.770;2022-08-19T01:38:30;5.60;;;3.65;;
54177;SDS011;40085;53.004;6.770;2022-08-19T01:41:02;7.70;;;4.50;;
54177;SDS011;40085;53.004;6.770;2022-08-19T01:43:28;7.47;;;4.10;;
54177;SDS011;40085;53.004;6.770;2022-08-19T01:45:53;6.60;;;4.40;;
54177;SDS011;40085;53.004;6.770;2022-08-19T01:48:19;7.88;;;4.43;;
54177;SDS011;40085;53.004;6.770;2022-08-19T01:50:45;6.53;;;4.38;;
54177;SDS011;40085;53.004;6.770;2022-08-19T01:53:12;5.65;;;3.58;;
54177;SDS011;40085;53.004;6.770;2022-08-19T01:55:40;7.43;;;4.47;;
54177;SDS011;40085;53.004;6.770;2022-08-19T01:58:08;15.60;;;4.78;;
54177;SDS011;40085;53.004;6.770;2022-08-19T02:00:41;8.30;;;4.32;;
54177;SDS011;40085;53.004;6.770;2022-08-19T02:03:08;7.45;;;4.53;;
54177;SDS011;40085;53.004;6.770;2022-08-19T02:05:36;6.20;;;4.22;;
54177;SDS011;40085;53.004;6.770;2022-08-19T02:08:02;10.88;;;4.50;;
54177;SDS011;40085;53.004;6.770;2022-08-19T02:10:29;7.15;;;4.35;;
54177;SDS011;40085;53.004;6.770;2022-08-19T02:12:55;6.90;;;3.83;;
54177;SDS011;40085;53.004;6.770;2022-08-19T02:15:21;6.32;;;4.47;;
54177;SDS011;40085;53.004;6.770;2022-08-19T02:17:47;5.32;;;3.42;;
54177;SDS011;40085;53.004;6.770;2022-08-19T02:20:13;10.27;;;4.43;;
54177;SDS011;40085;53.004;6.770;2022-08-19T02:22:40;7.40;;;4.63;;
54177;SDS011;40085;53.004;6.770;2022-08-19T02:25:08;4.53;;;3.00;;
54177;SDS011;40085;53.004;6.770;2022-08-19T02:27:38;8.95;;;4.07;;
54177;SDS011;40085;53.004;6.770;2022-08-19T02:30:05;7.32;;;4.07;;
54177;SDS011;40085;53.004;6.770;2022-08-19T02:32:32;7.53;;;4.28;;
54177;SDS011;40085;53.004;6.770;2022-08-19T02:34:58;6.45;;;4.22;;
54177;SDS011;40085;53.004;6.770;2022-08-19T02:37:24;6.72;;;4.07;;
54177;SDS011;40085;53.004;6.770;2022-08-19T02:40:08;8.10;;;4.20;;
54177;SDS011;40085;53.004;6.770;2022-08-19T02:42:34;8.13;;;4.10;;
54177;SDS011;40085;53.004;6.770;2022-08-19T02:45:00;6.25;;;3.72;;
54177;SDS011;40085;53.004;6.770;2022-08-19T02:47:25;7.78;;;4.32;;
54177;SDS011;40085;53.004;6.770;2022-08-19T02:49:51;7.90;;;4.40;;
54177;SDS011;40085;53.004;6.770;2022-08-19T02:52:17;8.45;;;4.50;;
54177;SDS011;40085;53.004;6.770;2022-08-19T02:54:43;8.43;;;4.72;;
54177;SDS011;40085;53.004;6.770;2022-08-19T02:57:09;7.03;;;4.47;;
54177;SDS011;40085;53.004;6.770;2022-08-19T02:59:35;6.47;;;3.97;;
54177;SDS011;40085;53.004;6.770;2022-08-19T03:02:01;7.55;;;4.43;;
54177;SDS011;40085;53.004;6.770;2022-08-19T03:04:26;6.70;;;3.97;;
54177;SDS011;40085;53.004;6.770;2022-08-19T03:06:52;7.10;;;4.47;;
54177;SDS011;40085;53.004;6.770;2022-08-19T03:09:19;6.90;;;4.30;;
54177;SDS011;40085;53.004;6.770;2022-08-19T03:11:45;9.73;;;4.35;;
54177;SDS011;40085;53.004;6.770;2022-08-19T03:14:11;6.50;;;4.10;;
54177;SDS011;40085;53.004;6.770;2022-08-19T03:16:42;7.00;;;4.20;;
54177;SDS011;40085;53.004;6.770;2022-08-19T03:19:10;7.07;;;4.40;;
54177;SDS011;40085;53.004;6.770;2022-08-19T03:21:37;7.50;;;3.90;;
54177;SDS011;40085;53.004;6.770;2022-08-19T03:24:04;6.07;;;3.78;;
54177;SDS011;40085;53.004;6.770;2022-08-19T03:26:31;10.23;;;4.30;;
54177;SDS011;40085;53.004;6.770;2022-08-19T03:28:57;6.90;;;4.07;;
54177;SDS011;40085;53.004;6.770;2022-08-19T03:31:27;6.10;;;3.45;;
54177;SDS011;40085;53.004;6.770;2022-08-19T03:33:53;7.05;;;3.58;;
54177;SDS011;40085;53.004;6.770;2022-08-19T03:36:20;8.38;;;4.40;;
54177;SDS011;40085;53.004;6.770;2022-08-19T03:38:49;8.23;;;4.13;;
54177;SDS011;40085;53.004;6.770;2022-08-19T03:41:23;8.73;;;4.15;;
54177;SDS011;40085;53.004;6.770;2022-08-19T03:43:51;5.75;;;3.88;;
54177;SDS011;40085;53.004;6.770;2022-08-19T03:46:22;7.63;;;4.32;;
54177;SDS011;40085;53.004;6.770;2022-08-19T03:48:51;9.93;;;4.50;;
54177;SDS011;40085;53.004;6.770;2022-08-19T03:51:22;6.25;;;3.70;;
54177;SDS011;40085;53.004;6.770;2022-08-19T03:53:54;8.55;;;3.88;;
54177;SDS011;40085;53.004;6.770;2022-08-19T03:56:20;5.32;;;3.72;;
54177;SDS011;40085;53.004;6.770;2022-08-19T03:58:47;7.53;;;4.45;;
54177;SDS011;40085;53.004;6.770;2022-08-19T04:01:17;7.47;;;4.47;;
54177;SDS011;40085;53.004;6.770;2022-08-19T04:03:45;6.07;;;3.80;;
54177;SDS011;40085;53.004;6.770;2022-08-19T04:06:34;7.47;;;4.38;;
54177;SDS011;40085;53.004;6.770;2022-08-19T04:09:00;10.25;;;4.95;;
54177;SDS011;40085;53.004;6.770;2022-08-19T04:11:37;7.85;;;4.40;;
54177;SDS011;40085;53.004;6.770;2022-08-19T04:14:07;6.13;;;3.97;;
54177;SDS011;40085;53.004;6.770;2022-08-19T04:16:35;7.13;;;4.22;;
54177;SDS011;40085;53.004;6.770;2022-08-19T04:19:01;7.25;;;4.38;;
54177;SDS011;40085;53.004;6.770;2022-08-19T04:21:28;7.88;;;4.47;;
54177;SDS011;40085;53.004;6.770;2022-08-19T04:23:55;8.25;;;4.70;;
54177;SDS011;40085;53.004;6.770;2022-08-19T04:26:29;9.88;;;4.38;;
54177;SDS011;40085;53.004;6.770;2022-08-19T04:28:58;9.32;;;4.70;;
54177;SDS011;40085;53.004;6.770;2022-08-19T04:31:30;8.40;;;4.53;;
54177;SDS011;40085;53.004;6.770;2022-08-19T04:34:01;8.20;;;4.00;;
54177;SDS011;40085;53.004;6.770;2022-08-19T04:36:30;10.55;;;5.00;;
54177;SDS011;40085;53.004;6.770;2022-08-19T04:38:57;8.55;;;4.28;;
54177;SDS011;40085;53.004;6.770;2022-08-19T04:41:25;6.13;;;3.45;;
54177;SDS011;40085;53.004;6.770;2022-08-19T04:44:09;5.75;;;3.42;;
54177;SDS011;40085;53.004;6.770;2022-08-19T04:46:36;6.00;;;3.17;;
54177;SDS011;40085;53.004;6.770;2022-08-19T04:49:03;8.25;;;4.85;;
54177;SDS011;40085;53.004;6.770;2022-08-19T04:51:31;8.93;;;4.18;;
54177;SDS011;40085;53.004;6.770;2022-08-19T04:53:58;8.40;;;4.50;;
54177;SDS011;40085;53.004;6.770;2022-08-19T04:56:26;7.82;;;4.90;;
54177;SDS011;40085;53.004;6.770;2022-08-19T04:58:53;6.97;;;4.28;;
54177;SDS011;40085;53.004;6.770;2022-08-19T05:01:22;6.00;;;3.80;;
54177;SDS011;40085;53.004;6.770;2022-08-19T05:03:50;9.20;;;4.55;;
54177;SDS011;40085;53.004;6.770;2022-08-19T05:06:19;10.23;;;4.68;;
54177;SDS011;40085;53.004;6.770;2022-08-19T05:08:46;7.88;;;4.30;;
54177;SDS011;40085;53.004;6.770;2022-08-19T05:11:19;9.75;;;5.55;;
54177;SDS011;40085;53.004;6.770;2022-08-19T05:13:46;12.55;;;4.40;;
54177;SDS011;40085;53.004;6.770;2022-08-19T05:16:14;7.53;;;4.22;;
54177;SDS011;40085;53.004;6.770;2022-08-19T05:18:42;10.02;;;4.70;;
54177;SDS011;40085;53.004;6.770;2022-08-19T05:21:28;7.32;;;4.40;;
54177;SDS011;40085;53.004;6.770;2022-08-19T05:24:12;8.75;;;4.90;;
54177;SDS011;40085;53.004;6.770;2022-08-19T05:26:40;8.50;;;4.50;;
54177;SDS011;40085;53.004;6.770;2022-08-19T05:29:07;7.00;;;4.82;;
54177;SDS011;40085;53.004;6.770;2022-08-19T05:31:35;11.60;;;5.35;;
54177;SDS011;40085;53.004;6.770;2022-08-19T05:34:01;7.30;;;4.20;;
54177;SDS011;40085;53.004;6.770;2022-08-19T05:36:32;9.95;;;4.97;;
54177;SDS011;40085;53.004;6.770;2022-08-19T05:39:03;7.07;;;4.70;;
54177;SDS011;40085;53.004;6.770;2022-08-19T05:41:29;7.15;;;4.13;;
54177;SDS011;40085;53.004;6.770;2022-08-19T05:43:56;8.38;;;4.80;;
54177;SDS011;40085;53.004;6.770;2022-08-19T05:46:22;7.45;;;5.07;;
54177;SDS011;40085;53.004;6.770;2022-08-19T05:48:49;8.43;;;5.18;;
54177;SDS011;40085;53.004;6.770;2022-08-19T05:51:15;9.23;;;4.55;;
54177;SDS011;40085;53.004;6.770;2022-08-19T05:53:41;9.43;;;5.82;;
54177;SDS011;40085;53.004;6.770;2022-08-19T05:56:14;9.70;;;5.30;;
54177;SDS011;40085;53.004;6.770;2022-08-19T05:58:44;9.48;;;4.90;;
54177;SDS011;40085;53.004;6.770;2022-08-19T06:01:12;7.93;;;4.85;;
54177;SDS011;40085;53.004;6.770;2022-08-19T06:03:39;9.75;;;5.00;;
54177;SDS011;40085;53.004;6.770;2022-08-19T06:06:06;7.72;;;4.47;;
54177;SDS011;40085;53.004;6.770;2022-08-19T06:08:34;7.15;;;4.53;;
54177;SDS011;40085;53.004;6.770;2022-08-19T06:13:45;9.02;;;4.38;;
54177;SDS011;40085;53.004;6.770;2022-08-19T06:16:12;5.68;;;4.15;;
54177;SDS011;40085;53.004;6.770;2022-08-19T06:18:45;7.72;;;4.43;;
54177;SDS011;40085;53.004;6.770;2022-08-19T06:21:11;10.15;;;3.83;;
54177;SDS011;40085;53.004;6.770;2022-08-19T06:23:37;8.40;;;5.20;;
54177;SDS011;40085;53.004;6.770;2022-08-19T06:26:04;6.82;;;4.00;;
54177;SDS011;40085;53.004;6.770;2022-08-19T06:28:30;6.90;;;4.13;;
54177;SDS011;40085;53.004;6.770;2022-08-19T06:30:58;10.55;;;3.97;;
54177;SDS011;40085;53.004;6.770;2022-08-19T06:33:23;6.05;;;3.75;;
54177;SDS011;40085;53.004;6.770;2022-08-19T06:35:49;6.72;;;4.50;;
54177;SDS011;40085;53.004;6.770;2022-08-19T06:38:14;8.77;;;3.88;;
54177;SDS011;40085;53.004;6.770;2022-08-19T06:40:40;6.25;;;3.38;;
54177;SDS011;40085;53.004;6.770;2022-08-19T06:43:06;5.40;;;3.53;;
54177;SDS011;40085;53.004;6.770;2022-08-19T06:45:32;6.15;;;4.05;;
54177;SDS011;40085;53.004;6.770;2022-08-19T06:47:58;5.18;;;3.35;;
54177;SDS011;40085;53.004;6.770;2022-08-19T06:50:23;4.53;;;3.38;;
54177;SDS011;40085;53.004;6.770;2022-08-19T06:52:49;6.15;;;3.53;;
54177;SDS011;40085;53.004;6.770;2022-08-19T06:55:15;5.40;;;3.03;;
54177;SDS011;40085;53.004;6.770;2022-08-19T06:57:42;4.93;;;3.40;;
54177;SDS011;40085;53.004;6.770;2022-08-19T07:00:08;8.90;;;3.70;;
54177;SDS011;40085;53.004;6.770;2022-08-19T07:02:42;3.63;;;2.75;;
54177;SDS011;40085;53.004;6.770;2022-08-19T07:05:08;5.35;;;3.65;;
54177;SDS011;40085;53.004;6.770;2022-08-19T07:07:35;5.30;;;3.15;;
54177;SDS011;40085;53.004;6.770;2022-08-19T07:10:00;5.70;;;2.95;;
54177;SDS011;40085;53.004;6.770;2022-08-19T07:12:30;5.45;;;3.13;;
54177;SDS011;40085;53.004;6.770;2022-08-19T07:15:00;6.38;;;3.40;;
54177;SDS011;40085;53.004;6.770;2022-08-19T07:17:26;4.93;;;3.28;;
54177;SDS011;40085;53.004;6.770;2022-08-19T07:19:52;9.32;;;3.80;;
54177;SDS011;40085;53.004;6.770;2022-08-19T07:22:17;5.22;;;3.00;;
54177;SDS011;40085;53.004;6.770;2022-08-19T07:24:45;5.63;;;3.10;;
54177;SDS011;40085;53.004;6.770;2022-08-19T07:27:13;5.82;;;2.97;;
54177;SDS011;40085;53.004;6.770;2022-08-19T07:29:39;3.85;;;2.83;;
54177;SDS011;40085;53.004;6.770;2022-08-19T07:32:05;6.35;;;3.75;;
54177;SDS011;40085;53.004;6.770;2022-08-19T07:34:31;5.25;;;3.38;;
54177;SDS011;40085;53.004;6.770;2022-08-19T07:37:02;6.22;;;3.88;;
54177;SDS011;40085;53.004;6.770;2022-08-19T07:39:32;5.88;;;3.80;;
54177;SDS011;40085;53.004;6.770;2022-08-19T07:42:00;6.40;;;3.63;;
54177;SDS011;40085;53.004;6.770;2022-08-19T07:44:29;6.35;;;3.72;;
54177;SDS011;40085;53.004;6.770;2022-08-19T07:46:55;4.63;;;3.00;;
54177;SDS011;40085;53.004;6.770;2022-08-19T07:49:22;4.55;;;3.10;;
54177;SDS011;40085;53.004;6.770;2022-08-19T07:51:53;5.38;;;3.97;;
54177;SDS011;40085;53.004;6.770;2022-08-19T07:54:22;5.22;;;3.42;;
54177;SDS011;40085;53.004;6.770;2022-08-19T07:56:49;5.63;;;3.40;;
54177;SDS011;40085;53.004;6.770;2022-08-19T07:59:18;5.57;;;3.75;;
54177;SDS011;40085;53.004;6.770;2022-08-19T08:01:45;5.75;;;3.92;;
54177;SDS011;40085;53.004;6.770;2022-08-19T08:04:11;5.40;;;3.70;;
54177;SDS011;40085;53.004;6.770;2022-08-19T08:06:56;6.80;;;3.63;;
54177;SDS011;40085;53.004;6.770;2022-08-19T08:09:41;7.95;;;3.22;;
54177;SDS011;40085;53.004;6.770;2022-08-19T08:12:10;6.22;;;3.50;;
54177;SDS011;40085;53.004;6.770;2022-08-19T08:14:51;4.97;;;3.58;;
54177;SDS011;40085;53.004;6.770;2022-08-19T08:17:19;6.07;;;3.50;;
54177;SDS011;40085;53.004;6.770;2022-08-19T08:19:47;5.47;;;3.50;;
54177;SDS011;40085;53.004;6.770;2022-08-19T08:22:15;7.13;;;3.72;;
54177;SDS011;40085;53.004;6.770;2022-08-19T08:25:09;5.47;;;3.42;;
54177;SDS011;40085;53.004;6.770;2022-08-19T08:27:41;7.80;;;3.30;;
54177;SDS011;40085;53.004;6.770;2022-08-19T08:30:10;5.40;;;3.40;;
54177;SDS011;40085;53.004;6.770;2022-08-19T08:32:37;4.38;;;2.72;;
54177;SDS011;40085;53.004;6.770;2022-08-19T08:35:04;4.55;;;3.20;;
54177;SDS011;40085;53.004;6.770;2022-08-19T08:37:32;5.60;;;3.38;;
54177;SDS011;40085;53.004;6.770;2022-08-19T08:39:57;3.72;;;2.70;;
54177;SDS011;40085;53.004;6.770;2022-08-19T08:42:31;7.60;;;2.63;;
54177;SDS011;40085;53.004;6.770;2022-08-19T08:45:11;3.97;;;2.40;;
54177;SDS011;40085;53.004;6.770;2022-08-19T08:47:41;2.70;;;1.83;;
54177;SDS011;40085;53.004;6.770;2022-08-19T08:52:50;3.60;;;2.25;;
54177;SDS011;40085;53.004;6.770;2022-08-19T08:55:22;5.63;;;2.20;;
54177;SDS011;40085;53.004;6.770;2022-08-19T08:57:53;4.22;;;2.20;;
54177;SDS011;40085;53.004;6.770;2022-08-19T09:00:36;4.80;;;2.57;;
54177;SDS011;40085;53.004;6.770;2022-08-19T09:03:06;4.32;;;2.30;;
54177;SDS011;40085;53.004;6.770;2022-08-19T09:05:44;3.25;;;2.38;;
54177;SDS011;40085;53.004;6.770;2022-08-19T09:16:30;3.00;;;2.15;;
54177;SDS011;40085;53.004;6.770;2022-08-19T09:18:57;7.05;;;3.60;;
54177;SDS011;40085;53.004;6.770;2022-08-19T09:21:27;3.80;;;2.55;;
54177;SDS011;40085;53.004;6.770;2022-08-19T09:23:53;4.35;;;2.60;;
54177;SDS011;40085;53.004;6.770;2022-08-19T09:26:19;5.00;;;2.90;;
54177;SDS011;40085;53.004;6.770;2022-08-19T09:28:47;6.53;;;2.92;;
54177;SDS011;40085;53.004;6.770;2022-08-19T09:31:16;3.40;;;2.28;;
54177;SDS011;40085;53.004;6.770;2022-08-19T09:33:44;5.60;;;2.70;;
54177;SDS011;40085;53.004;6.770;2022-08-19T09:36:11;4.15;;;3.22;;
54177;SDS011;40085;53.004;6.770;2022-08-19T09:38:39;5.38;;;3.33;;
54177;SDS011;40085;53.004;6.770;2022-08-19T09:41:09;6.85;;;3.45;;
54177;SDS011;40085;53.004;6.770;2022-08-19T09:43:39;3.58;;;2.50;;
54177;SDS011;40085;53.004;6.770;2022-08-19T09:46:06;5.13;;;3.58;;
54177;SDS011;40085;53.004;6.770;2022-08-19T09:48:34;6.80;;;3.60;;
54177;SDS011;40085;53.004;6.770;2022-08-19T09:51:05;6.38;;;3.50;;
54177;SDS011;40085;53.004;6.770;2022-08-19T09:53:33;5.03;;;3.45;;
54177;SDS011;40085;53.004;6.770;2022-08-19T09:56:00;7.38;;;4.40;;
54177;SDS011;40085;53.004;6.770;2022-08-19T09:58:26;6.75;;;4.20;;
54177;SDS011;40085;53.004;6.770;2022-08-19T10:00:53;5.82;;;3.45;;
54177;SDS011;40085;53.004;6.770;2022-08-19T10:03:20;4.00;;;3.33;;
54177;SDS011;40085;53.004;6.770;2022-08-19T10:05:46;4.95;;;3.70;;
54177;SDS011;40085;53.004;6.770;2022-08-19T10:08:19;4.78;;;3.38;;
54177;SDS011;40085;53.004;6.770;2022-08-19T10:10:51;4.38;;;3.53;;
54177;SDS011;40085;53.004;6.770;2022-08-19T10:13:18;5.72;;;3.83;;
54177;SDS011;40085;53.004;6.770;2022-08-19T10:15:48;6.38;;;3.35;;
54177;SDS011;40085;53.004;6.770;2022-08-19T10:18:19;6.07;;;3.80;;
54177;SDS011;40085;53.004;6.770;2022-08-19T10:20:46;5.18;;;3.45;;
54177;SDS011;40085;53.004;6.770;2022-08-19T10:23:13;4.88;;;2.95;;
54177;SDS011;40085;53.004;6.770;2022-08-19T10:25:40;5.18;;;2.85;;
54177;SDS011;40085;53.004;6.770;2022-08-19T10:28:07;3.92;;;2.85;;
54177;SDS011;40085;53.004;6.770;2022-08-19T10:30:37;7.25;;;3.05;;
54177;SDS011;40085;53.004;6.770;2022-08-19T10:33:03;6.05;;;3.55;;
54177;SDS011;40085;53.004;6.770;2022-08-19T10:35:30;5.05;;;3.15;;
54177;SDS011;40085;53.004;6.770;2022-08-19T10:37:56;4.25;;;3.17;;
54177;SDS011;40085;53.004;6.770;2022-08-19T10:42:53;6.25;;;2.75;;
54177;SDS011;40085;53.004;6.770;2022-08-19T10:45:22;3.50;;;2.90;;
54177;SDS011;40085;53.004;6.770;2022-08-19T10:47:54;6.03;;;3.72;;
54177;SDS011;40085;53.004;6.770;2022-08-19T10:50:20;7.55;;;3.97;;
54177;SDS011;40085;53.004;6.770;2022-08-19T10:53:06;4.80;;;3.03;;
54177;SDS011;40085;53.004;6.770;2022-08-19T10:58:20;5.10;;;3.50;;
54177;SDS011;40085;53.004;6.770;2022-08-19T11:00:56;3.85;;;2.72;;
54177;SDS011;40085;53.004;6.770;2022-08-19T11:03:23;4.38;;;2.90;;
54177;SDS011;40085;53.004;6.770;2022-08-19T11:06:00;6.40;;;3.70;;
54177;SDS011;40085;53.004;6.770;2022-08-19T11:08:30;5.97;;;3.38;;
54177;SDS011;40085;53.004;6.770;2022-08-19T11:10:58;6.03;;;3.47;;
54177;SDS011;40085;53.004;6.770;2022-08-19T11:13:26;6.28;;;3.17;;
54177;SDS011;40085;53.004;6.770;2022-08-19T11:16:00;5.40;;;3.13;;
54177;SDS011;40085;53.004;6.770;2022-08-19T11:18:35;3.95;;;2.85;;
54177;SDS011;40085;53.004;6.770;2022-08-19T11:21:06;5.00;;;3.22;;
54177;SDS011;40085;53.004;6.770;2022-08-19T11:23:44;4.47;;;3.13;;
54177;SDS011;40085;53.004;6.770;2022-08-19T11:26:12;5.53;;;3.42;;
54177;SDS011;40085;53.004;6.770;2022-08-19T11:28:38;3.75;;;2.78;;
54177;SDS011;40085;53.004;6.770;2022-08-19T11:31:09;4.10;;;3.33;;
54177;SDS011;40085;53.004;6.770;2022-08-19T11:33:36;4.65;;;3.38;;
54177;SDS011;40085;53.004;6.770;2022-08-19T11:36:02;5.45;;;3.13;;
54177;SDS011;40085;53.004;6.770;2022-08-19T11:38:28;4.10;;;3.03;;
54177;SDS011;40085;53.004;6.770;2022-08-19T11:40:59;5.03;;;3.22;;
54177;SDS011;40085;53.004;6.770;2022-08-19T11:43:26;4.82;;;2.88;;
54177;SDS011;40085;53.004;6.770;2022-08-19T11:45:56;5.32;;;3.65;;
54177;SDS011;40085;53.004;6.770;2022-08-19T11:48:22;4.27;;;2.83;;
54177;SDS011;40085;53.004;6.770;2022-08-19T11:50:49;4.75;;;3.30;;
54177;SDS011;40085;53.004;6.770;2022-08-19T11:53:16;4.70;;;3.20;;
54177;SDS011;40085;53.004;6.770;2022-08-19T11:55:44;4.72;;;3.00;;
54177;SDS011;40085;53.004;6.770;2022-08-19T11:58:11;4.40;;;2.90;;
54177;SDS011;40085;53.004;6.770;2022-08-19T12:00:38;5.72;;;2.95;;
54177;SDS011;40085;53.004;6.770;2022-08-19T12:03:04;5.25;;;2.90;;
54177;SDS011;40085;53.004;6.770;2022-08-19T12:05:31;5.03;;;3.40;;
54177;SDS011;40085;53.004;6.770;2022-08-19T12:07:56;4.07;;;3.28;;
54177;SDS011;40085;53.004;6.770;2022-08-19T12:10:22;5.00;;;3.00;;
54177;SDS011;40085;53.004;6.770;2022-08-19T12:12:48;6.20;;;3.33;;
54177;SDS011;40085;53.004;6.770;2022-08-19T12:15:14;4.45;;;3.50;;
54177;SDS011;40085;53.004;6.770;2022-08-19T12:17:40;5.35;;;3.38;;
54177;SDS011;40085;53.004;6.770;2022-08-19T12:20:07;4.50;;;2.85;;
54177;SDS011;40085;53.004;6.770;2022-08-19T12:22:38;4.00;;;2.65;;
54177;SDS011;40085;53.004;6.770;2022-08-19T12:25:09;4.82;;;3.00;;
54177;SDS011;40085;53.004;6.770;2022-08-19T12:27:36;4.38;;;2.95;;
54177;SDS011;40085;53.004;6.770;2022-08-19T12:30:03;3.58;;;3.17;;
54177;SDS011;40085;53.004;6.770;2022-08-19T12:32:30;4.70;;;3.60;;
54177;SDS011;40085;53.004;6.770;2022-08-19T12:34:55;5.30;;;3.20;;
54177;SDS011;40085;53.004;6.770;2022-08-19T12:37:21;6.20;;;3.90;;
54177;SDS011;40085;53.004;6.770;2022-08-19T12:39:47;4.82;;;3.80;;
54177;SDS011;40085;53.004;6.770;2022-08-19T12:42:13;6.30;;;3.80;;
54177;SDS011;40085;53.004;6.770;2022-08-19T12:44:40;5.72;;;4.53;;
54177;SDS011;40085;53.004;6.770;2022-08-19T12:47:08;5.57;;;4.00;;
54177;SDS011;40085;53.004;6.770;2022-08-19T12:49:36;5.45;;;3.92;;
54177;SDS011;40085;53.004;6.770;2022-08-19T12:52:04;5.72;;;4.18;;
54177;SDS011;40085;53.004;6.770;2022-08-19T12:54:33;5.55;;;4.07;;
54177;SDS011;40085;53.004;6.770;2022-08-19T12:56:59;6.45;;;4.25;;
54177;SDS011;40085;53.004;6.770;2022-08-19T12:59:26;4.88;;;3.55;;
54177;SDS011;40085;53.004;6.770;2022-08-19T13:01:52;5.20;;;4.32;;
54177;SDS011;40085;53.004;6.770;2022-08-19T13:04:18;4.93;;;3.78;;
54177;SDS011;40085;53.004;6.770;2022-08-19T13:06:43;5.55;;;3.50;;
54177;SDS011;40085;53.004;6.770;2022-08-19T13:09:09;4.03;;;3.00;;
54177;SDS011;40085;53.004;6.770;2022-08-19T13:11:36;3.13;;;2.40;;
54177;SDS011;40085;53.004;6.770;2022-08-19T13:14:02;4.53;;;2.70;;
54177;SDS011;40085;53.004;6.770;2022-08-19T13:16:28;3.67;;;2.47;;
54177;SDS011;40085;53.004;6.770;2022-08-19T13:18:55;2.88;;;2.42;;
54177;SDS011;40085;53.004;6.770;2022-08-19T13:21:23;3.28;;;2.60;;
54177;SDS011;40085;53.004;6.770;2022-08-19T13:23:50;4.90;;;2.38;;
54177;SDS011;40085;53.004;6.770;2022-08-19T13:26:17;6.22;;;2.38;;
54177;SDS011;40085;53.004;6.770;2022-08-19T13:28:43;4.95;;;2.97;;
54177;SDS011;40085;53.004;6.770;2022-08-19T13:31:29;3.80;;;2.50;;
54177;SDS011;40085;53.004;6.770;2022-08-19T13:34:16;4.28;;;2.90;;
54177;SDS011;40085;53.004;6.770;2022-08-19T13:36:44;4.20;;;2.47;;
54177;SDS011;40085;53.004;6.770;2022-08-19T13:39:10;3.90;;;2.63;;
54177;SDS011;40085;53.004;6.770;2022-08-19T13:41:36;4.13;;;2.88;;
54177;SDS011;40085;53.004;6.770;2022-08-19T13:44:03;6.72;;;3.35;;
54177;SDS011;40085;53.004;6.770;2022-08-19T13:46:31;3.88;;;2.88;;
54177;SDS011;40085;53.004;6.770;2022-08-19T13:48:57;3.10;;;2.28;;
54177;SDS011;40085;53.004;6.770;2022-08-19T13:51:22;2.80;;;2.20;;
54177;SDS011;40085;53.004;6.770;2022-08-19T13:53:48;3.33;;;2.40;;
54177;SDS011;40085;53.004;6.770;2022-08-19T13:56:16;3.25;;;2.85;;
54177;SDS011;40085;53.004;6.770;2022-08-19T13:58:44;3.67;;;2.70;;
54177;SDS011;40085;53.004;6.770;2022-08-19T14:01:11;3.95;;;2.50;;
54177;SDS011;40085;53.004;6.770;2022-08-19T14:03:37;4.70;;;2.80;;
54177;SDS011;40085;53.004;6.770;2022-08-19T14:06:03;4.40;;;2.75;;
54177;SDS011;40085;53.004;6.770;2022-08-19T14:08:29;5.13;;;2.95;;
54177;SDS011;40085;53.004;6.770;2022-08-19T14:10:57;4.35;;;2.90;;
54177;SDS011;40085;53.004;6.770;2022-08-19T14:13:23;7.25;;;4.65;;
54177;SDS011;40085;53.004;6.770;2022-08-19T14:15:49;9.10;;;5.85;;
54177;SDS011;40085;53.004;6.770;2022-08-19T14:18:16;7.93;;;5.60;;
54177;SDS011;40085;53.004;6.770;2022-08-19T14:20:43;12.93;;;6.03;;
54177;SDS011;40085;53.004;6.770;2022-08-19T14:23:09;10.10;;;5.80;;
54177;SDS011;40085;53.004;6.770;2022-08-19T14:25:37;9.18;;;6.40;;
54177;SDS011;40085;53.004;6.770;2022-08-19T14:28:03;12.75;;;6.07;;
54177;SDS011;40085;53.004;6.770;2022-08-19T14:30:30;10.90;;;6.22;;
54177;SDS011;40085;53.004;6.770;2022-08-19T14:32:58;9.25;;;5.45;;
54177;SDS011;40085;53.004;6.770;2022-08-19T14:35:26;6.80;;;5.07;;
54177;SDS011;40085;53.004;6.770;2022-08-19T14:37:54;8.68;;;5.50;;
54177;SDS011;40085;53.004;6.770;2022-08-19T14:40:22;11.15;;;6.30;;
54177;SDS011;40085;53.004;6.770;2022-08-19T14:42:51;7.00;;;5.10;;
54177;SDS011;40085;53.004;6.770;2022-08-19T14:45:20;9.55;;;5.32;;
54177;SDS011;40085;53.004;6.770;2022-08-19T14:47:46;10.48;;;5.93;;
54177;SDS011;40085;53.004;6.770;2022-08-19T14:50:12;8.35;;;5.72;;
54177;SDS011;40085;53.004;6.770;2022-08-19T14:52:38;10.23;;;5.63;;
54177;SDS011;40085;53.004;6.770;2022-08-19T14:55:05;6.18;;;4.15;;
54177;SDS011;40085;53.004;6.770;2022-08-19T14:57:31;7.70;;;4.32;;
54177;SDS011;40085;53.004;6.770;2022-08-19T14:59:58;6.70;;;3.90;;
54177;SDS011;40085;53.004;6.770;2022-08-19T15:02:24;7.40;;;3.80;;
54177;SDS011;40085;53.004;6.770;2022-08-19T15:04:50;7.03;;;4.05;;
54177;SDS011;40085;53.004;6.770;2022-08-19T15:07:16;8.68;;;5.05;;
54177;SDS011;40085;53.004;6.770;2022-08-19T15:09:41;6.40;;;4.45;;
54177;SDS011;40085;53.004;6.770;2022-08-19T15:12:07;8.95;;;4.13;;
54177;SDS011;40085;53.004;6.770;2022-08-19T15:14:35;9.25;;;4.25;;
54177;SDS011;40085;53.004;6.770;2022-08-19T15:17:03;8.48;;;4.93;;